createdAt,value
2018-12-24T01:22:23.804Z,12.17
2018-12-24T01:26:29.802Z,13.53
2018-12-24T01:30:35.838Z,12.60
2018-12-24T01:34:42.008Z,13.70
2018-12-24T01:39:04.613Z,12.90
2018-12-24T01:43:01.484Z,12.57
2018-12-24T01:51:45.049Z,12.27
2018-12-24T01:55:50.475Z,12.73
2018-12-24T01:59:55.919Z,12.60
2018-12-24T02:04:01.325Z,13.13
2018-12-24T02:08:06.813Z,10.87
2018-12-24T02:12:12.658Z,11.30
2018-12-24T02:16:25.635Z,11.03
2018-12-24T02:20:31.213Z,10.17
2018-12-24T02:24:36.880Z,10.60
2018-12-24T02:28:42.423Z,10.87
2018-12-24T02:32:47.903Z,10.77
2018-12-24T02:36:53.361Z,11.43
2018-12-24T02:40:58.849Z,11.70
2018-12-24T02:45:04.331Z,10.33
2018-12-24T02:49:09.803Z,11.50
2018-12-24T02:53:15.276Z,10.70
2018-12-24T02:57:26.188Z,10.53
2018-12-24T03:01:31.689Z,11.37
2018-12-24T03:05:37.088Z,12.20
2018-12-24T03:09:42.600Z,11.97
2018-12-24T03:13:47.964Z,11.70
2018-12-24T03:17:53.251Z,11.53
2018-12-24T03:22:39.501Z,11.13
2018-12-24T03:26:45.004Z,13.23
2018-12-24T03:30:50.551Z,13.90
2018-12-24T03:34:56.022Z,14.10
2018-12-24T03:39:01.539Z,15.97
2018-12-24T03:43:27.915Z,16.30
2018-12-24T03:47:37.966Z,18.50
2018-12-24T03:51:43.548Z,17.90
2018-12-24T03:55:49.128Z,16.63
2018-12-24T03:59:54.575Z,18.37
2018-12-24T04:04:00.240Z,19.17
2018-12-24T04:08:06.023Z,21.60
2018-12-24T04:12:11.381Z,22.67
2018-12-24T04:16:16.761Z,23.97
2018-12-24T04:20:22.172Z,25.47
2018-12-24T04:24:27.624Z,26.83
2018-12-24T04:28:33.082Z,25.23
2018-12-24T04:32:57.658Z,26.93
2018-12-24T04:37:03.222Z,28.03
2018-12-24T04:41:27.737Z,27.63
2018-12-24T04:45:33.531Z,25.07
2018-12-24T04:49:38.926Z,25.73
2018-12-24T04:53:44.342Z,25.67
2018-12-24T04:57:50.027Z,25.50
2018-12-24T05:01:55.868Z,27.27
2018-12-24T05:06:01.622Z,27.23
2018-12-24T05:10:07.117Z,25.00
2018-12-24T05:14:12.801Z,24.80
2018-12-24T05:18:18.499Z,23.73
2018-12-24T05:22:23.830Z,23.77
2018-12-24T05:26:29.307Z,25.13
2018-12-24T05:30:34.747Z,21.43
2018-12-24T05:34:40.251Z,21.13
2018-12-24T05:38:45.746Z,22.43
2018-12-24T05:42:51.232Z,21.00
2018-12-24T05:46:56.672Z,21.93
2018-12-24T05:51:02.210Z,20.60
2018-12-24T05:55:07.778Z,19.77
2018-12-24T05:59:13.253Z,18.23
2018-12-24T06:03:18.718Z,18.20
2018-12-24T06:07:24.116Z,20.73
2018-12-24T06:11:30.049Z,19.43
2018-12-24T06:15:35.513Z,17.27
2018-12-24T06:19:40.913Z,17.83
2018-12-24T06:23:46.311Z,16.93
2018-12-24T06:27:51.766Z,17.10
2018-12-24T06:31:57.235Z,17.10
2018-12-24T06:36:02.708Z,16.87
2018-12-24T06:40:08.120Z,15.97
2018-12-24T06:44:13.597Z,16.67
2018-12-24T06:48:19.272Z,15.47
2018-12-24T06:52:24.763Z,15.97
2018-12-24T06:56:30.286Z,15.67
2018-12-24T07:00:35.754Z,16.73
2018-12-24T07:04:41.146Z,15.17
2018-12-24T07:08:46.619Z,14.17
2018-12-24T07:13:11.013Z,15.33
2018-12-24T07:17:16.384Z,13.97
2018-12-24T07:21:21.856Z,13.80
2018-12-24T07:25:38.697Z,15.97
2018-12-24T07:29:44.086Z,15.67
2018-12-24T07:33:49.464Z,14.17
2018-12-24T07:37:54.803Z,14.93
2018-12-24T07:42:00.210Z,12.83
2018-12-24T07:46:05.743Z,12.67
2018-12-24T07:54:48.541Z,14.80
2018-12-24T07:58:54.184Z,14.27
2018-12-24T08:02:59.661Z,14.00
2018-12-24T08:07:05.105Z,9.87
2018-12-24T08:15:34.834Z,10.93
2018-12-24T08:19:40.237Z,11.33
2018-12-24T08:23:45.574Z,12.57
2018-12-24T08:28:10.103Z,12.33
2018-12-24T08:32:15.604Z,10.10
2018-12-24T08:36:21.028Z,10.50
2018-12-24T08:40:26.467Z,10.27
2018-12-24T08:44:31.953Z,8.73
2018-12-24T08:48:39.100Z,9.27
2018-12-24T08:52:44.564Z,9.00
2018-12-24T08:56:50.245Z,9.60
2018-12-24T09:00:55.711Z,7.77
2018-12-24T09:05:01.166Z,7.53
2018-12-24T09:09:12.346Z,8.07
2018-12-24T09:13:17.750Z,7.50
2018-12-24T09:17:23.077Z,7.17
2018-12-24T09:21:28.588Z,7.43
2018-12-24T09:25:34.065Z,7.00
2018-12-24T09:29:39.541Z,7.83
2018-12-24T09:34:04.033Z,6.70
2018-12-24T09:38:14.617Z,6.07
2018-12-24T09:42:19.984Z,5.40
2018-12-24T09:51:02.358Z,4.93
2018-12-24T09:55:07.884Z,4.10
2018-12-24T09:59:13.491Z,4.00
2018-12-24T10:04:02.825Z,3.33
2018-12-24T10:08:13.571Z,3.20
2018-12-24T10:12:18.957Z,2.67
2018-12-24T10:16:24.355Z,2.80
2018-12-24T10:20:29.677Z,3.10
2018-12-24T10:24:34.994Z,2.87
2018-12-24T10:28:40.418Z,3.10
2018-12-24T10:32:45.867Z,3.17
2018-12-24T10:36:51.351Z,3.03
2018-12-24T10:41:10.294Z,3.10
2018-12-24T10:45:16.746Z,3.03
2018-12-24T10:49:42.171Z,2.40
2018-12-24T10:53:47.631Z,3.00
2018-12-24T10:57:53.059Z,2.70
2018-12-24T11:01:58.456Z,2.40
2018-12-24T11:06:03.835Z,1.90
2018-12-24T11:10:12.015Z,1.97
2018-12-24T11:14:17.295Z,1.50
2018-12-24T11:18:22.748Z,1.50
2018-12-24T11:22:28.204Z,1.73
2018-12-24T11:26:33.694Z,1.40
2018-12-24T11:30:39.169Z,1.27
2018-12-24T11:34:44.682Z,1.10
2018-12-24T11:38:50.159Z,1.20
2018-12-24T11:42:55.660Z,1.30
2018-12-24T11:47:01.142Z,1.20
2018-12-24T11:51:06.560Z,0.90
2018-12-24T11:55:14.503Z,0.93
2018-12-24T11:59:20.901Z,1.40
2018-12-24T12:03:26.867Z,1.43
2018-12-24T12:07:32.278Z,1.20
2018-12-24T12:11:37.645Z,0.90
2018-12-24T12:15:43.172Z,1.33
2018-12-24T12:19:48.483Z,1.10
2018-12-24T12:23:53.898Z,1.00
2018-12-24T12:27:59.639Z,1.40
2018-12-24T12:32:05.093Z,1.20
2018-12-24T12:36:10.424Z,1.03
2018-12-24T12:40:15.830Z,1.33
2018-12-24T12:44:21.324Z,1.00
2018-12-24T12:48:45.681Z,1.07
2018-12-24T12:53:02.371Z,1.00
2018-12-24T12:57:07.824Z,1.20
2018-12-24T13:01:13.326Z,1.20
2018-12-24T13:05:18.715Z,1.07
2018-12-24T13:09:24.386Z,1.20
2018-12-24T13:13:36.675Z,1.30
2018-12-24T13:22:04.470Z,1.20
2018-12-24T13:26:16.477Z,1.10
2018-12-24T13:34:39.164Z,0.90
2018-12-24T13:38:44.901Z,1.33
2018-12-24T13:42:50.239Z,1.40
2018-12-24T13:46:55.644Z,1.47
2018-12-24T13:51:19.984Z,1.10
2018-12-24T13:55:25.311Z,1.37
2018-12-24T13:59:30.849Z,1.07
2018-12-24T14:03:37.958Z,1.20
2018-12-24T14:07:43.279Z,1.07
2018-12-24T14:11:48.691Z,1.30
2018-12-24T14:15:54.204Z,1.37
2018-12-24T14:19:59.680Z,1.20
2018-12-24T14:24:05.183Z,1.20
2018-12-24T14:28:10.702Z,0.80
2018-12-24T14:32:16.153Z,1.30
2018-12-24T14:36:21.606Z,1.17
2018-12-24T14:40:45.934Z,0.93
2018-12-24T14:44:51.311Z,1.70
2018-12-24T14:48:56.712Z,1.37
2018-12-24T14:53:02.165Z,1.37
2018-12-24T14:57:07.559Z,0.90
2018-12-24T15:01:13.219Z,1.43
2018-12-24T15:05:18.927Z,1.10
2018-12-24T15:09:43.346Z,1.30
2018-12-24T15:13:48.680Z,1.37
2018-12-24T15:17:54.228Z,1.37
2018-12-24T15:21:59.751Z,1.13
2018-12-24T15:26:05.236Z,1.70
2018-12-24T15:30:10.775Z,1.40
2018-12-24T15:34:16.285Z,1.50
2018-12-24T15:38:21.681Z,1.80
2018-12-24T15:42:27.063Z,1.40
2018-12-24T15:46:32.504Z,1.73
2018-12-24T15:50:37.882Z,1.70
2018-12-24T15:54:43.275Z,1.70
2018-12-24T15:58:48.593Z,1.70
2018-12-24T16:02:53.978Z,2.10
2018-12-24T16:06:59.386Z,2.07
2018-12-24T16:11:04.781Z,2.37
2018-12-24T16:15:10.273Z,5.43
2018-12-24T16:19:15.696Z,3.93
2018-12-24T16:23:21.177Z,3.07
2018-12-24T16:27:26.664Z,3.70
2018-12-24T16:31:32.166Z,3.50
2018-12-24T16:35:37.695Z,3.77
2018-12-24T16:39:43.295Z,6.23
2018-12-24T16:44:08.008Z,4.50
2018-12-24T16:48:13.453Z,4.63
2018-12-24T16:52:18.966Z,3.60
2018-12-24T16:56:24.459Z,4.00
2018-12-24T17:00:29.941Z,4.83
2018-12-24T17:04:35.556Z,5.50
2018-12-24T17:08:41.230Z,5.00
2018-12-24T17:12:46.693Z,5.53
2018-12-24T17:16:52.198Z,3.93
2018-12-24T17:20:58.020Z,3.47
2018-12-24T17:25:03.580Z,3.67
2018-12-24T17:29:10.598Z,4.20
2018-12-24T17:33:16.072Z,7.77
2018-12-24T17:37:21.618Z,7.33
2018-12-24T17:41:27.124Z,11.55
2018-12-24T17:45:32.590Z,7.50
2018-12-24T17:49:38.113Z,14.30
2018-12-24T17:53:43.568Z,8.00
2018-12-24T17:57:49.366Z,8.60
2018-12-24T18:01:55.031Z,7.33
2018-12-24T18:06:00.547Z,8.63
2018-12-24T18:10:06.067Z,11.87
2018-12-24T18:14:30.575Z,10.70
2018-12-24T18:18:36.009Z,8.83
2018-12-24T18:22:41.407Z,12.90
2018-12-24T18:26:46.820Z,11.70
2018-12-24T18:30:52.308Z,12.17
2018-12-24T18:34:58.394Z,10.30
2018-12-24T18:39:04.718Z,12.40
2018-12-24T18:43:10.520Z,10.43
2018-12-24T18:47:16.018Z,14.43
2018-12-24T18:51:21.575Z,10.70
2018-12-24T18:55:26.959Z,10.53
2018-12-24T18:59:32.452Z,12.40
2018-12-24T19:03:37.970Z,12.20
2018-12-24T19:07:49.419Z,11.40
2018-12-24T19:11:54.930Z,11.10
2018-12-24T19:16:00.459Z,14.00
2018-12-24T19:20:07.529Z,10.67
2018-12-24T19:24:13.058Z,12.80
2018-12-24T19:28:18.798Z,13.33
2018-12-24T19:32:24.247Z,12.80
2018-12-24T19:36:29.766Z,12.77
2018-12-24T19:40:35.358Z,13.60
2018-12-24T19:44:40.710Z,13.43
2018-12-24T19:48:46.050Z,12.10
2018-12-24T19:52:51.630Z,12.80
2018-12-24T19:57:08.443Z,12.70
2018-12-24T20:01:13.809Z,17.80
2018-12-24T20:05:38.363Z,15.50
2018-12-24T20:09:43.954Z,17.73
2018-12-24T20:13:49.327Z,14.93
2018-12-24T20:17:58.293Z,12.20
2018-12-24T20:22:21.209Z,13.90
2018-12-24T20:26:26.721Z,11.23
2018-12-24T20:30:32.090Z,12.87
2018-12-24T20:34:37.690Z,15.10
2018-12-24T20:38:43.362Z,14.70
2018-12-24T20:42:48.793Z,15.53
2018-12-24T20:46:54.196Z,14.20
2018-12-24T20:50:59.667Z,13.47
2018-12-24T20:55:05.182Z,12.63
2018-12-24T20:59:10.716Z,12.47
2018-12-24T21:03:16.233Z,11.73
2018-12-24T21:07:21.657Z,12.23
2018-12-24T21:11:27.173Z,12.00
2018-12-24T21:15:32.681Z,12.43
2018-12-24T21:19:38.237Z,13.43
2018-12-24T21:23:44.141Z,11.43
2018-12-24T21:27:49.668Z,10.83
2018-12-24T21:31:55.166Z,11.60
2018-12-24T21:36:00.747Z,12.30
2018-12-24T21:44:38.515Z,12.80
2018-12-24T21:48:44.059Z,12.20
2018-12-24T21:52:49.558Z,13.80
2018-12-24T21:56:55.104Z,12.23
2018-12-24T22:01:00.658Z,12.57
2018-12-24T22:05:06.243Z,13.90
2018-12-24T22:09:30.876Z,14.37
2018-12-24T22:13:36.347Z,16.43
2018-12-24T22:17:41.888Z,13.90
2018-12-24T22:21:47.449Z,15.03
2018-12-24T22:25:53.004Z,16.23
2018-12-24T22:29:58.557Z,14.60
2018-12-24T22:34:04.064Z,13.87
2018-12-24T22:38:09.586Z,16.93
2018-12-24T22:42:15.211Z,18.23
2018-12-24T22:46:20.664Z,13.90
2018-12-24T22:50:26.062Z,14.90
2018-12-24T22:54:31.535Z,16.03
2018-12-24T22:58:37.083Z,12.73
2018-12-24T23:02:42.558Z,11.67
2018-12-24T23:06:48.044Z,13.73
2018-12-24T23:10:53.528Z,15.60
2018-12-24T23:14:59.000Z,12.87
2018-12-24T23:19:04.491Z,11.90
2018-12-24T23:23:09.964Z,14.40
2018-12-24T23:27:15.573Z,11.50
2018-12-24T23:31:21.082Z,11.10
2018-12-24T23:35:26.667Z,11.23
2018-12-24T23:39:32.173Z,11.03
2018-12-24T23:43:39.308Z,10.60
2018-12-24T23:47:56.136Z,10.23
2018-12-24T23:52:01.950Z,9.87
2018-12-24T23:56:07.435Z,9.90
